createdAt,value
2023-05-20T05:00:47.608Z,13.78
2023-05-20T05:01:47.597Z,13.81
2023-05-20T05:02:47.586Z,13.79
2023-05-20T05:03:47.524Z,13.77
2023-05-20T05:04:47.618Z,13.81
2023-05-20T05:05:47.502Z,13.84
2023-05-20T05:06:47.549Z,13.79
2023-05-20T05:07:47.483Z,13.71
2023-05-20T05:08:47.472Z,13.77
2023-05-20T05:09:47.481Z,13.70
2023-05-20T05:10:47.460Z,13.79
2023-05-20T05:11:52.470Z,13.66
2023-05-20T05:12:47.428Z,13.78
2023-05-20T05:13:47.415Z,13.79
2023-05-20T05:14:47.424Z,13.82
2023-05-20T05:15:47.425Z,13.77
2023-05-20T05:16:47.405Z,13.75
2023-05-20T05:17:47.446Z,13.75
2023-05-20T05:18:47.403Z,13.79
2023-05-20T05:19:47.373Z,13.73
2023-05-20T05:20:47.378Z,13.79
2023-05-20T05:21:47.323Z,13.84
2023-05-20T05:22:52.353Z,13.82
2023-05-20T05:23:47.306Z,13.84
2023-05-20T05:24:47.299Z,13.82
2023-05-20T05:25:47.312Z,13.70
2023-05-20T05:26:47.276Z,13.81
2023-05-20T05:27:47.255Z,13.75
2023-05-20T05:28:47.243Z,13.79
2023-05-20T05:29:47.248Z,13.79
2023-05-20T05:30:47.227Z,13.88
2023-05-20T05:31:47.232Z,13.89
2023-05-20T05:32:47.362Z,13.88
2023-05-20T05:33:52.216Z,13.70
2023-05-20T05:34:47.184Z,13.85
2023-05-20T05:35:47.165Z,13.92
2023-05-20T05:36:47.164Z,13.87
2023-05-20T05:37:47.155Z,13.91
2023-05-20T05:38:47.157Z,13.99
2023-05-20T05:39:47.134Z,13.96
2023-05-20T05:40:47.103Z,14.04
2023-05-20T05:41:47.094Z,14.03
2023-05-20T05:42:47.098Z,14.07
2023-05-20T05:43:47.084Z,13.99
2023-05-20T05:44:52.141Z,14.03
2023-05-20T05:45:47.053Z,14.12
2023-05-20T05:46:47.064Z,14.10
2023-05-20T05:47:47.067Z,14.18
2023-05-20T05:48:47.053Z,14.12
2023-05-20T05:49:47.017Z,14.20
2023-05-20T05:50:47.001Z,14.17
2023-05-20T05:51:46.984Z,14.18
2023-05-20T05:52:46.973Z,14.28
2023-05-20T05:53:46.970Z,14.27
2023-05-20T05:54:46.949Z,14.28
2023-05-20T05:55:51.960Z,14.25
2023-05-20T05:56:46.938Z,14.35
2023-05-20T05:57:46.924Z,14.37
2023-05-20T05:58:46.912Z,14.39
2023-05-20T05:59:46.896Z,14.47
2023-05-20T06:00:46.981Z,14.51
2023-05-20T06:01:46.940Z,14.54
2023-05-20T06:02:47.134Z,14.60
2023-05-20T06:03:46.982Z,14.55
2023-05-20T06:04:46.875Z,14.50
2023-05-20T06:05:46.827Z,14.61
2023-05-20T06:06:51.833Z,14.58
2023-05-20T06:07:46.824Z,14.70
2023-05-20T06:08:46.814Z,14.68
2023-05-20T06:09:46.779Z,14.72
2023-05-20T06:10:46.780Z,14.69
2023-05-20T06:11:46.771Z,14.75
2023-05-20T06:12:46.761Z,14.86
2023-05-20T06:13:46.739Z,14.91
2023-05-20T06:14:46.735Z,14.96
2023-05-20T06:15:46.713Z,14.95
2023-05-20T06:16:46.761Z,15.03
2023-05-20T06:17:51.724Z,15.09
2023-05-20T06:18:46.728Z,15.19
2023-05-20T06:19:46.662Z,15.17
2023-05-20T06:20:46.679Z,15.23
2023-05-20T06:21:46.697Z,15.19
2023-05-20T06:22:46.717Z,15.21
2023-05-20T06:23:46.623Z,15.27
2023-05-20T06:24:46.604Z,15.36
2023-05-20T06:25:46.614Z,15.31
2023-05-20T06:26:46.613Z,15.39
2023-05-20T06:27:46.586Z,15.44
2023-05-20T06:28:51.582Z,15.38
2023-05-20T06:29:46.548Z,15.46
2023-05-20T06:30:46.557Z,15.49
2023-05-20T06:31:46.531Z,15.39
2023-05-20T06:32:46.605Z,15.35
2023-05-20T06:33:46.511Z,15.43
2023-05-20T06:34:46.506Z,15.50
2023-05-20T06:35:46.496Z,15.53
2023-05-20T06:36:46.489Z,15.51
2023-05-20T06:37:46.482Z,15.54
2023-05-20T06:38:46.477Z,15.60
2023-05-20T06:39:51.474Z,15.65
2023-05-20T06:40:46.446Z,15.57
2023-05-20T06:41:46.416Z,15.56
2023-05-20T06:42:46.414Z,15.67
2023-05-20T06:43:46.393Z,15.68
2023-05-20T06:44:46.426Z,15.72
2023-05-20T06:45:46.374Z,15.71
2023-05-20T06:46:46.500Z,15.75
2023-05-20T06:47:46.397Z,15.83
2023-05-20T06:48:46.338Z,15.80
2023-05-20T06:49:47.669Z,15.93
2023-05-20T06:50:51.379Z,16.00
2023-05-20T06:51:46.301Z,16.01
2023-05-20T06:52:46.322Z,16.05
2023-05-20T06:53:46.292Z,16.11
2023-05-20T06:54:46.273Z,16.27
2023-05-20T06:55:46.260Z,16.35
2023-05-20T06:56:46.316Z,16.42
2023-05-20T06:57:46.244Z,16.48
2023-05-20T06:58:46.233Z,16.52
2023-05-20T06:59:46.212Z,16.52
2023-05-20T07:00:46.198Z,16.58
2023-05-20T07:01:51.261Z,16.71
2023-05-20T07:02:46.272Z,16.73
2023-05-20T07:03:46.279Z,16.79
2023-05-20T07:04:46.167Z,16.79
2023-05-20T07:05:46.141Z,16.75
2023-05-20T07:06:46.133Z,16.71
2023-05-20T07:07:46.152Z,16.76
2023-05-20T07:08:46.157Z,16.73
2023-05-20T07:09:46.100Z,16.82
2023-05-20T07:10:46.084Z,16.81
2023-05-20T07:11:46.079Z,16.83
2023-05-20T07:12:51.089Z,16.85
2023-05-20T07:13:46.059Z,16.93
2023-05-20T07:14:46.064Z,16.89
2023-05-20T07:15:46.060Z,16.93
2023-05-20T07:16:46.013Z,17.00
2023-05-20T07:17:46.022Z,17.04
2023-05-20T07:18:46.051Z,17.06
2023-05-20T07:19:45.981Z,17.04
2023-05-20T07:20:46.018Z,16.98
2023-05-20T07:21:45.978Z,17.04
2023-05-20T07:22:45.970Z,17.06
2023-05-20T07:23:50.985Z,17.19
2023-05-20T07:24:45.927Z,17.15
2023-05-20T07:25:45.916Z,17.15
2023-05-20T07:26:45.940Z,17.16
2023-05-20T07:27:45.916Z,17.25
2023-05-20T07:28:45.877Z,17.23
2023-05-20T07:29:45.863Z,17.31
2023-05-20T07:30:45.852Z,17.28
2023-05-20T07:31:45.921Z,17.37
2023-05-20T07:32:45.891Z,17.40
2023-05-20T07:33:45.843Z,17.46
2023-05-20T07:34:50.830Z,17.54
2023-05-20T07:35:45.812Z,17.55
2023-05-20T07:36:45.801Z,17.49
2023-05-20T07:37:45.788Z,17.49
2023-05-20T07:38:57.079Z,17.40
2023-05-20T07:39:45.800Z,17.44
2023-05-20T07:40:45.747Z,17.51
2023-05-20T07:41:45.744Z,17.49
2023-05-20T07:42:45.715Z,17.55
2023-05-20T07:43:45.818Z,17.62
2023-05-20T07:44:45.717Z,17.75
2023-05-20T07:45:50.745Z,17.68
2023-05-20T07:46:45.676Z,17.75
2023-05-20T07:47:45.782Z,17.90
2023-05-20T07:48:45.657Z,17.97
2023-05-20T07:49:45.654Z,18.05
2023-05-20T07:50:45.644Z,18.17
2023-05-20T07:51:45.646Z,18.12
2023-05-20T07:52:55.838Z,18.23
2023-05-20T07:53:45.615Z,18.21
2023-05-20T07:54:45.632Z,18.21
2023-05-20T07:55:45.600Z,18.26
2023-05-20T07:56:50.591Z,18.37
2023-05-20T07:57:45.556Z,18.50
2023-05-20T07:58:45.540Z,18.45
2023-05-20T07:59:45.568Z,18.45
2023-05-20T08:00:45.516Z,18.48
2023-05-20T08:01:45.506Z,18.50
2023-05-20T08:02:45.580Z,18.66
2023-05-20T08:03:45.582Z,18.70
2023-05-20T08:04:45.477Z,18.92
2023-05-20T08:05:45.492Z,18.90
2023-05-20T08:06:45.462Z,18.84
2023-05-20T08:07:50.466Z,18.82
2023-05-20T08:08:45.434Z,18.88
2023-05-20T08:09:45.429Z,18.88
2023-05-20T08:10:45.438Z,18.98
2023-05-20T08:11:47.311Z,18.90
2023-05-20T08:12:45.386Z,19.02
2023-05-20T08:13:45.386Z,19.02
2023-05-20T08:14:45.366Z,18.99
2023-05-20T08:15:45.347Z,18.99
2023-05-20T08:16:45.364Z,19.00
2023-05-20T08:17:45.381Z,19.07
2023-05-20T08:18:50.366Z,19.07
2023-05-20T08:19:45.311Z,18.98
2023-05-20T08:20:45.294Z,18.99
2023-05-20T08:21:45.283Z,18.94
2023-05-20T08:22:45.273Z,19.02
2023-05-20T08:23:45.286Z,19.11
2023-05-20T08:24:45.251Z,19.32
2023-05-20T08:25:45.231Z,19.41
2023-05-20T08:26:45.231Z,19.46
2023-05-20T08:27:45.249Z,19.54
2023-05-20T08:28:45.201Z,19.55
2023-05-20T08:29:50.272Z,19.59
2023-05-20T08:30:45.231Z,19.59
2023-05-20T08:31:45.163Z,19.58
2023-05-20T08:32:45.199Z,19.56
2023-05-20T08:33:45.148Z,19.56
2023-05-20T08:34:45.147Z,19.56
2023-05-20T08:35:45.142Z,19.58
2023-05-20T08:36:45.125Z,19.66
2023-05-20T08:37:45.105Z,19.74
2023-05-20T08:38:45.108Z,19.65
2023-05-20T08:39:45.072Z,19.73
2023-05-20T08:40:50.082Z,19.77
2023-05-20T08:41:45.086Z,19.84
2023-05-20T08:42:45.052Z,19.86
2023-05-20T08:43:45.083Z,19.98
2023-05-20T08:44:45.017Z,19.87
2023-05-20T08:45:45.003Z,20.01
2023-05-20T08:46:45.137Z,19.92
2023-05-20T08:47:45.070Z,20.02
2023-05-20T08:48:44.972Z,19.99
2023-05-20T08:49:44.964Z,20.05
2023-05-20T08:50:44.966Z,20.03
2023-05-20T08:51:49.969Z,20.13
2023-05-20T08:52:44.924Z,20.14
2023-05-20T08:53:44.930Z,20.10
2023-05-20T08:54:44.905Z,20.28
2023-05-20T08:55:44.904Z,20.36
2023-05-20T08:56:44.919Z,20.50
2023-05-20T08:57:44.907Z,20.64
2023-05-20T08:58:44.861Z,20.72
2023-05-20T08:59:45.009Z,20.74
2023-05-20T09:00:44.856Z,20.80
2023-05-20T09:01:44.877Z,20.91
2023-05-20T09:02:49.859Z,21.06
2023-05-20T09:03:44.804Z,21.24
2023-05-20T09:04:44.821Z,21.34
2023-05-20T09:05:44.810Z,21.49
2023-05-20T09:06:44.776Z,21.72
2023-05-20T09:07:44.762Z,21.67
2023-05-20T09:08:44.750Z,21.77
2023-05-20T09:09:44.774Z,21.74
2023-05-20T09:10:44.740Z,21.67
2023-05-20T09:11:44.752Z,21.56
2023-05-20T09:12:44.701Z,21.40
2023-05-20T09:13:49.715Z,21.34
2023-05-20T09:14:44.688Z,21.37
2023-05-20T09:15:44.693Z,21.32
2023-05-20T09:16:44.677Z,21.22
2023-05-20T09:17:44.691Z,21.10
2023-05-20T09:18:44.645Z,20.91
2023-05-20T09:19:44.633Z,20.97
2023-05-20T09:20:44.609Z,20.98
2023-05-20T09:21:44.603Z,20.92
2023-05-20T09:22:44.590Z,20.97
2023-05-20T09:23:44.620Z,21.25
2023-05-20T09:24:49.662Z,21.37
2023-05-20T09:25:44.557Z,21.44
2023-05-20T09:26:44.550Z,21.56
2023-05-20T09:27:44.532Z,21.52
2023-05-20T09:28:44.525Z,21.44
2023-05-20T09:29:44.535Z,21.52
2023-05-20T09:30:45.987Z,21.59
2023-05-20T09:31:44.549Z,21.71
2023-05-20T09:32:44.492Z,21.80
2023-05-20T09:33:44.480Z,21.98
2023-05-20T09:34:44.452Z,22.00
2023-05-20T09:35:49.493Z,21.82
2023-05-20T09:36:44.427Z,21.67
2023-05-20T09:37:44.439Z,21.82
2023-05-20T09:38:44.415Z,21.98
2023-05-20T09:39:44.393Z,22.10
2023-05-20T09:40:44.410Z,22.12
2023-05-20T09:41:44.420Z,22.51
2023-05-20T09:42:44.358Z,22.75
2023-05-20T09:43:44.383Z,22.98
2023-05-20T09:44:44.344Z,23.09
2023-05-20T09:45:44.334Z,22.92
2023-05-20T09:46:49.360Z,22.51
2023-05-20T09:47:44.393Z,22.10
2023-05-20T09:48:44.327Z,22.21
2023-05-20T09:49:44.285Z,22.20
2023-05-20T09:50:44.318Z,22.22
2023-05-20T09:51:44.258Z,22.45
2023-05-20T09:52:44.263Z,22.61
2023-05-20T09:53:44.289Z,22.64
2023-05-20T09:54:44.230Z,22.64
2023-05-20T09:55:44.208Z,22.58
2023-05-20T09:56:44.203Z,22.51
2023-05-20T09:57:44.202Z,22.45
2023-05-20T09:58:44.184Z,22.37
2023-05-20T09:59:49.239Z,22.36
2023-05-20T10:00:44.175Z,22.18
2023-05-20T10:01:44.176Z,22.18
2023-05-20T10:02:44.258Z,22.07
2023-05-20T10:03:44.555Z,22.03
2023-05-20T10:04:44.119Z,21.98
2023-05-20T10:05:44.102Z,22.02
2023-05-20T10:06:44.132Z,21.86
2023-05-20T10:07:44.105Z,21.83
2023-05-20T10:08:44.071Z,21.88
2023-05-20T10:09:44.061Z,21.83
2023-05-20T10:10:49.069Z,21.90
2023-05-20T10:11:44.071Z,21.96
2023-05-20T10:12:44.078Z,22.05
2023-05-20T10:13:44.021Z,22.09
2023-05-20T10:14:44.001Z,22.09
2023-05-20T10:15:44.018Z,22.05
2023-05-20T10:16:43.996Z,22.02
2023-05-20T10:17:43.993Z,21.99
2023-05-20T10:18:44.025Z,21.90
2023-05-20T10:19:43.945Z,21.96
2023-05-20T10:20:43.947Z,22.07
2023-05-20T10:21:48.957Z,22.06
2023-05-20T10:22:43.941Z,22.07
2023-05-20T10:23:43.900Z,22.15
2023-05-20T10:24:43.970Z,22.18
2023-05-20T10:25:43.894Z,22.22
2023-05-20T10:26:43.869Z,22.27
2023-05-20T10:27:43.858Z,22.25
2023-05-20T10:28:43.845Z,22.21
2023-05-20T10:29:43.846Z,22.25
2023-05-20T10:30:44.530Z,22.39
2023-05-20T10:31:43.827Z,22.43
2023-05-20T10:32:48.879Z,22.36
2023-05-20T10:33:43.810Z,22.40
2023-05-20T10:34:43.798Z,22.42
2023-05-20T10:35:43.787Z,22.40
2023-05-20T10:36:43.809Z,22.46
2023-05-20T10:37:43.746Z,22.47
2023-05-20T10:38:43.730Z,22.51
2023-05-20T10:39:43.722Z,22.51
2023-05-20T10:40:43.720Z,22.55
2023-05-20T10:41:43.696Z,22.67
2023-05-20T10:42:43.731Z,22.77
2023-05-20T10:43:48.694Z,22.86
2023-05-20T10:44:43.681Z,23.02
2023-05-20T10:45:43.667Z,23.10
2023-05-20T10:47:43.687Z,23.35
2023-05-20T10:48:43.740Z,23.40
2023-05-20T10:49:43.614Z,23.47
2023-05-20T10:50:43.618Z,23.54
2023-05-20T10:51:43.584Z,23.66
2023-05-20T10:52:43.571Z,23.68
2023-05-20T10:53:43.566Z,23.50
2023-05-20T10:54:51.492Z,23.54
2023-05-20T10:55:43.533Z,23.40
2023-05-20T10:56:43.525Z,23.38
2023-05-20T10:57:43.523Z,23.39
2023-05-20T10:58:43.511Z,23.36
2023-05-20T10:59:43.497Z,23.31
2023-05-20T11:00:43.580Z,23.10
2023-05-20T11:01:43.493Z,23.09
2023-05-20T11:02:43.577Z,23.05
2023-05-20T11:03:43.599Z,23.19
2023-05-20T11:04:43.445Z,22.97
2023-05-20T11:05:48.467Z,23.20
2023-05-20T11:06:43.462Z,23.39
2023-05-20T11:07:43.406Z,23.43
2023-05-20T11:08:43.415Z,23.28
2023-05-20T11:09:43.378Z,23.48
2023-05-20T11:10:43.373Z,23.87
2023-05-20T11:11:43.355Z,24.10
2023-05-20T11:12:43.456Z,24.58
2023-05-20T11:13:43.362Z,24.67
2023-05-20T11:14:43.324Z,24.85
2023-05-20T11:15:43.318Z,24.91
2023-05-20T11:16:48.343Z,25.27
2023-05-20T11:17:43.349Z,25.52
2023-05-20T11:18:43.464Z,25.61
2023-05-20T11:19:43.272Z,25.33
2023-05-20T11:20:43.262Z,25.03
2023-05-20T11:21:43.269Z,24.67
2023-05-20T11:22:43.249Z,24.46
2023-05-20T11:23:43.224Z,24.25
2023-05-20T11:24:43.262Z,23.83
2023-05-20T11:25:43.229Z,23.75
2023-05-20T11:26:43.200Z,23.66
2023-05-20T11:27:43.191Z,23.48
2023-05-20T11:28:43.174Z,23.47
2023-05-20T11:29:48.196Z,23.35
2023-05-20T11:30:43.336Z,23.27
2023-05-20T11:31:43.219Z,23.35
2023-05-20T11:32:43.190Z,23.39
2023-05-20T11:33:43.113Z,23.35
2023-05-20T11:34:43.105Z,23.27
2023-05-20T11:35:43.233Z,23.09
2023-05-20T11:36:43.095Z,23.07
2023-05-20T11:37:43.094Z,23.04
2023-05-20T11:38:43.160Z,22.90
2023-05-20T11:39:43.053Z,22.90
2023-05-20T11:40:50.389Z,22.75
2023-05-20T11:41:43.035Z,22.82
2023-05-20T11:42:48.040Z,22.85
2023-05-20T11:43:43.039Z,23.07
2023-05-20T11:44:43.053Z,23.19
2023-05-20T11:45:42.985Z,23.40
2023-05-20T11:46:43.061Z,23.39
2023-05-20T11:47:43.009Z,23.70
2023-05-20T11:48:42.956Z,23.69
2023-05-20T11:49:42.941Z,23.69
2023-05-20T11:50:42.974Z,23.48
2023-05-20T11:51:42.913Z,23.39
2023-05-20T11:52:42.906Z,23.23
2023-05-20T11:53:47.936Z,23.22
2023-05-20T11:54:42.892Z,23.16
2023-05-20T11:55:42.886Z,23.13
2023-05-20T11:56:42.891Z,23.28
2023-05-20T11:57:42.852Z,23.83
2023-05-20T11:58:42.849Z,24.50
2023-05-20T11:59:42.853Z,24.81
2023-05-20T12:00:51.313Z,24.43
2023-05-20T12:01:42.837Z,23.78
2023-05-20T12:02:42.921Z,23.83
2023-05-20T12:03:42.940Z,23.60
2023-05-20T12:04:47.831Z,23.69
2023-05-20T12:05:42.773Z,23.72
2023-05-20T12:06:42.745Z,23.73
2023-05-20T12:07:42.760Z,23.84
2023-05-20T12:08:42.756Z,23.79
2023-05-20T12:09:42.743Z,23.84
2023-05-20T12:10:42.708Z,23.76
2023-05-20T12:11:42.704Z,23.76
2023-05-20T12:12:42.680Z,23.50
2023-05-20T12:13:42.665Z,23.54
2023-05-20T12:14:42.719Z,23.90
2023-05-20T12:15:47.680Z,23.93
2023-05-20T12:16:42.659Z,24.27
2023-05-20T12:17:42.661Z,24.46
2023-05-20T12:18:42.648Z,24.67
2023-05-20T12:19:42.632Z,25.02
2023-05-20T12:20:42.658Z,25.06
2023-05-20T12:21:42.597Z,25.36
2023-05-20T12:22:42.568Z,25.47
2023-05-20T12:23:42.561Z,25.35
2023-05-20T12:24:42.553Z,24.88
2023-05-20T12:25:42.554Z,24.73
2023-05-20T12:26:42.577Z,24.62
2023-05-20T12:27:42.512Z,24.39
2023-05-20T12:28:47.542Z,23.97
2023-05-20T12:29:42.513Z,23.57
2023-05-20T12:30:42.520Z,23.63
2023-05-20T12:31:42.535Z,23.36
2023-05-20T12:32:42.592Z,23.36
2023-05-20T12:33:42.450Z,23.46
2023-05-20T12:34:42.431Z,23.31
2023-05-20T12:35:42.422Z,23.48
2023-05-20T12:36:42.411Z,23.54
2023-05-20T12:37:42.409Z,23.42
2023-05-20T12:38:42.469Z,23.42
2023-05-20T12:39:42.374Z,23.40
2023-05-20T12:40:42.365Z,23.33
2023-05-20T12:41:47.395Z,23.22
2023-05-20T12:42:42.369Z,23.09
2023-05-20T12:43:42.329Z,23.17
2023-05-20T12:44:42.355Z,23.15
2023-05-20T12:45:42.379Z,23.25
2023-05-20T12:46:42.334Z,23.31
2023-05-20T12:47:42.302Z,23.25
2023-05-20T12:48:42.808Z,23.16
2023-05-20T12:49:42.269Z,23.10
2023-05-20T12:50:42.294Z,23.04
2023-05-20T12:51:42.265Z,22.90
2023-05-20T12:52:47.282Z,22.76
2023-05-20T12:53:42.215Z,22.70
2023-05-20T12:54:42.210Z,22.67
2023-05-20T12:55:42.196Z,22.75
2023-05-20T12:56:42.231Z,22.62
2023-05-20T12:57:42.197Z,22.70
2023-05-20T12:58:42.179Z,22.73
2023-05-20T12:59:42.147Z,22.80
2023-05-20T13:00:42.168Z,22.77
2023-05-20T13:01:42.207Z,22.77
2023-05-20T13:02:42.282Z,22.83
2023-05-20T13:03:47.162Z,22.75
2023-05-20T13:04:42.099Z,22.80
2023-05-20T13:05:42.095Z,22.77
2023-05-20T13:06:42.092Z,22.77
2023-05-20T13:07:42.073Z,22.91
2023-05-20T13:08:42.049Z,22.80
2023-05-20T13:09:42.064Z,22.80
2023-05-20T13:10:42.048Z,22.80
2023-05-20T13:11:42.016Z,22.97
2023-05-20T13:12:42.012Z,22.98
2023-05-20T13:13:42.013Z,23.05
2023-05-20T13:14:47.009Z,23.01
2023-05-20T13:15:42.013Z,23.07
2023-05-20T13:16:42.015Z,22.98
2023-05-20T13:17:41.987Z,23.02
2023-05-20T13:18:41.973Z,22.94
2023-05-20T13:19:41.939Z,23.09
2023-05-20T13:20:41.926Z,23.09
2023-05-20T13:21:41.933Z,23.13
2023-05-20T13:22:41.896Z,23.28
2023-05-20T13:23:41.893Z,23.17
2023-05-20T13:24:41.899Z,23.35
2023-05-20T13:25:46.892Z,23.38
2023-05-20T13:26:41.850Z,23.40
2023-05-20T13:27:41.866Z,23.39
2023-05-20T13:28:41.838Z,23.36
2023-05-20T13:29:41.862Z,23.40
2023-05-20T13:30:41.946Z,23.46
2023-05-20T13:31:41.793Z,23.47
2023-05-20T13:32:41.841Z,23.38
2023-05-20T13:33:41.805Z,23.35
2023-05-20T13:34:41.771Z,23.43
2023-05-20T13:35:41.753Z,23.39
2023-05-20T13:36:46.774Z,23.38
2023-05-20T13:37:41.729Z,23.38
2023-05-20T13:38:41.730Z,23.32
2023-05-20T13:39:41.757Z,23.31
2023-05-20T13:40:41.705Z,23.36
2023-05-20T13:41:41.687Z,23.32
2023-05-20T13:42:41.701Z,23.35
2023-05-20T13:43:41.668Z,23.25
2023-05-20T13:44:41.648Z,23.25
2023-05-20T13:45:41.671Z,23.25
2023-05-20T13:46:41.749Z,23.32
2023-05-20T13:47:46.674Z,23.33
2023-05-20T13:48:41.611Z,23.32
2023-05-20T13:49:41.597Z,23.36
2023-05-20T13:50:41.585Z,23.28
2023-05-20T13:51:41.606Z,23.28
2023-05-20T13:52:41.555Z,23.28
2023-05-20T13:53:41.558Z,23.31
2023-05-20T13:54:41.538Z,23.32
2023-05-20T13:55:41.538Z,23.39
2023-05-20T13:56:41.510Z,23.42
2023-05-20T13:57:41.730Z,23.33
2023-05-20T13:58:46.541Z,23.31
2023-05-20T13:59:41.473Z,23.25
2023-05-20T14:00:41.461Z,23.35
2023-05-20T14:01:41.564Z,23.31
2023-05-20T14:02:41.561Z,23.38
2023-05-20T14:03:41.590Z,23.43
2023-05-20T14:04:41.419Z,23.28
2023-05-20T14:05:41.422Z,23.25
2023-05-20T14:06:41.403Z,23.20
2023-05-20T14:07:41.412Z,23.31
2023-05-20T14:08:41.379Z,23.23
2023-05-20T14:09:46.411Z,23.31
2023-05-20T14:10:41.379Z,23.25
2023-05-20T14:11:41.381Z,23.27
2023-05-20T14:12:41.341Z,23.31
2023-05-20T14:13:41.328Z,23.27
2023-05-20T14:14:41.309Z,23.28
2023-05-20T14:15:41.332Z,23.20
2023-05-20T14:16:41.336Z,23.19
2023-05-20T14:17:41.325Z,23.22
2023-05-20T14:18:41.287Z,23.16
2023-05-20T14:19:41.310Z,23.20
2023-05-20T14:20:46.274Z,23.17
2023-05-20T14:21:41.263Z,23.15
2023-05-20T14:22:41.367Z,23.16
2023-05-20T14:23:41.225Z,23.16
2023-05-20T14:24:41.202Z,23.25
2023-05-20T14:25:41.192Z,23.35
2023-05-20T14:26:41.194Z,23.33
2023-05-20T14:27:41.166Z,23.31
2023-05-20T14:28:41.150Z,23.35
2023-05-20T14:29:41.179Z,23.38
2023-05-20T14:30:41.151Z,23.35
2023-05-20T14:31:46.146Z,23.40
2023-05-20T14:32:41.212Z,23.48
2023-05-20T14:33:41.119Z,23.46
2023-05-20T14:34:41.196Z,23.53
2023-05-20T14:35:41.146Z,23.51
2023-05-20T14:36:41.070Z,23.57
2023-05-20T14:37:41.052Z,23.58
2023-05-20T14:38:41.049Z,23.68
2023-05-20T14:39:41.068Z,23.72
2023-05-20T14:40:41.025Z,23.68
2023-05-20T14:41:41.038Z,23.73
2023-05-20T14:42:46.020Z,23.78
2023-05-20T14:43:41.000Z,23.79
2023-05-20T14:44:40.988Z,23.80
2023-05-20T14:45:40.970Z,23.76
2023-05-20T14:46:41.012Z,23.72
2023-05-20T14:47:40.993Z,23.73
2023-05-20T14:48:40.931Z,23.87
2023-05-20T14:49:40.962Z,23.95
2023-05-20T14:50:40.919Z,23.70
2023-05-20T14:51:40.892Z,23.68
2023-05-20T14:52:40.899Z,23.68
2023-05-20T14:53:45.930Z,23.68
2023-05-20T14:54:40.890Z,23.79
2023-05-20T14:55:40.853Z,23.78
2023-05-20T14:56:40.850Z,23.80
2023-05-20T14:57:40.833Z,23.72
2023-05-20T14:58:40.826Z,23.79
2023-05-20T14:59:40.835Z,23.72
2023-05-20T15:00:40.863Z,23.72
2023-05-20T15:01:40.809Z,23.61
2023-05-20T15:02:40.849Z,23.70
2023-05-20T15:03:40.858Z,23.69
2023-05-20T15:04:45.793Z,23.66
2023-05-20T15:05:40.776Z,23.66
2023-05-20T15:06:40.724Z,23.55
2023-05-20T15:07:40.734Z,23.48
2023-05-20T15:08:40.710Z,23.40
2023-05-20T15:09:40.705Z,23.48
2023-05-20T15:10:40.681Z,23.40
2023-05-20T15:11:40.706Z,23.40
2023-05-20T15:12:40.665Z,23.38
2023-05-20T15:13:40.645Z,23.36
2023-05-20T15:14:40.646Z,23.39
2023-05-20T15:15:45.651Z,23.31
2023-05-20T15:16:40.634Z,23.27
2023-05-20T15:17:40.660Z,23.28
2023-05-20T15:18:40.612Z,23.31
2023-05-20T15:19:41.569Z,23.36
2023-05-20T15:20:40.806Z,23.35
2023-05-20T15:21:40.575Z,23.33
2023-05-20T15:22:40.562Z,23.40
2023-05-20T15:23:40.556Z,23.31
2023-05-20T15:24:40.563Z,23.27
2023-05-20T15:25:40.520Z,23.28
2023-05-20T15:26:45.547Z,23.22
2023-05-20T15:27:40.495Z,23.31
2023-05-20T15:28:40.490Z,23.19
2023-05-20T15:29:41.000Z,23.27
2023-05-20T15:30:40.474Z,23.25
2023-05-20T15:31:40.460Z,23.27
2023-05-20T15:32:40.522Z,23.28
2023-05-20T15:33:40.591Z,23.25
2023-05-20T15:34:40.418Z,23.16
2023-05-20T15:35:40.430Z,23.20
2023-05-20T15:36:40.452Z,23.09
2023-05-20T15:37:45.409Z,23.02
2023-05-20T15:38:40.378Z,22.95
2023-05-20T15:39:40.365Z,22.95
2023-05-20T15:40:40.356Z,22.85
2023-05-20T15:41:40.706Z,22.76
2023-05-20T15:42:40.324Z,22.77
2023-05-20T15:43:40.322Z,22.82
2023-05-20T15:44:40.304Z,22.75
2023-05-20T15:45:40.300Z,22.76
2023-05-20T15:46:40.418Z,22.73
2023-05-20T15:47:40.950Z,22.91
2023-05-20T15:48:45.284Z,22.80
2023-05-20T15:49:40.256Z,22.70
2023-05-20T15:50:40.309Z,22.73
2023-05-20T15:51:42.612Z,22.67
2023-05-20T15:52:40.301Z,22.62
2023-05-20T15:53:40.897Z,22.62
2023-05-20T15:54:40.199Z,22.61
2023-05-20T15:55:41.137Z,22.57
2023-05-20T15:56:40.178Z,22.55
2023-05-20T15:57:40.190Z,22.62
2023-05-20T15:58:40.146Z,22.58
2023-05-20T15:59:45.196Z,22.62
2023-05-20T16:00:40.126Z,22.52
2023-05-20T16:01:40.421Z,22.54
2023-05-20T16:02:40.392Z,22.49
2023-05-20T16:03:40.182Z,22.37
2023-05-20T16:04:40.097Z,22.46
2023-05-20T16:05:40.107Z,22.52
2023-05-20T16:06:40.059Z,22.51
2023-05-20T16:07:40.045Z,22.35
2023-05-20T16:08:40.066Z,22.46
2023-05-20T16:09:40.043Z,22.35
2023-05-20T16:10:45.032Z,22.43
2023-05-20T16:11:40.052Z,22.40
2023-05-20T16:12:39.990Z,22.39
2023-05-20T16:13:39.997Z,22.39
2023-05-20T16:14:39.981Z,22.35
2023-05-20T16:15:40.005Z,22.33
2023-05-20T16:16:40.063Z,22.33
2023-05-20T16:17:39.985Z,22.25
2023-05-20T16:18:40.013Z,22.22
2023-05-20T16:19:39.956Z,22.24
2023-05-20T16:20:39.933Z,22.24
2023-05-20T16:21:44.912Z,22.20
2023-05-20T16:22:39.892Z,22.22
2023-05-20T16:23:39.909Z,22.20
2023-05-20T16:24:39.880Z,22.25
2023-05-20T16:25:39.849Z,22.25
2023-05-20T16:26:39.843Z,22.22
2023-05-20T16:27:39.834Z,22.27
2023-05-20T16:28:39.834Z,22.27
2023-05-20T16:29:39.881Z,22.27
2023-05-20T16:30:39.789Z,22.31
2023-05-20T16:31:39.796Z,22.24
2023-05-20T16:32:44.836Z,22.30
2023-05-20T16:33:39.754Z,22.25
2023-05-20T16:34:39.750Z,22.21
2023-05-20T16:35:39.785Z,22.28
2023-05-20T16:36:39.759Z,22.22
2023-05-20T16:37:39.736Z,22.36
2023-05-20T16:38:39.702Z,22.36
2023-05-20T16:39:39.699Z,22.39
2023-05-20T16:40:39.704Z,22.36
2023-05-20T16:41:39.774Z,22.39
2023-05-20T16:42:39.660Z,22.37
2023-05-20T16:43:44.684Z,22.36
2023-05-20T16:44:39.632Z,22.39
2023-05-20T16:45:39.635Z,22.36
2023-05-20T16:46:39.622Z,22.37
2023-05-20T16:47:39.680Z,22.43
2023-05-20T16:48:39.595Z,22.37
2023-05-20T16:49:39.585Z,22.43
2023-05-20T16:50:39.565Z,22.30
2023-05-20T16:51:39.569Z,22.37
2023-05-20T16:52:39.589Z,22.37
2023-05-20T16:53:39.625Z,22.37
2023-05-20T16:54:44.539Z,22.42
2023-05-20T16:55:39.513Z,22.39
2023-05-20T16:56:39.534Z,22.39
2023-05-20T16:57:39.493Z,22.33
2023-05-20T16:58:39.484Z,22.31
2023-05-20T16:59:39.490Z,22.24
2023-05-20T17:00:39.475Z,22.25
2023-05-20T17:01:39.522Z,22.21
2023-05-20T17:02:39.466Z,22.14
2023-05-20T17:03:39.420Z,22.20
2023-05-20T17:04:39.483Z,22.22
2023-05-20T17:05:44.493Z,22.18
2023-05-20T17:06:39.386Z,22.15
2023-05-20T17:07:39.377Z,22.21
2023-05-20T17:08:39.364Z,22.22
2023-05-20T17:09:39.355Z,22.17
2023-05-20T17:10:39.348Z,22.17
2023-05-20T17:11:39.365Z,22.25
2023-05-20T17:12:39.340Z,22.17
2023-05-20T17:13:39.315Z,22.27
2023-05-20T17:14:39.307Z,22.20
2023-05-20T17:15:39.301Z,22.21
2023-05-20T17:16:44.368Z,22.31
2023-05-20T17:17:39.349Z,22.27
2023-05-20T17:18:39.251Z,22.21
2023-05-20T17:19:39.252Z,22.22
2023-05-20T17:20:39.228Z,22.18
2023-05-20T17:21:39.228Z,22.20
2023-05-20T17:22:39.208Z,22.21
2023-05-20T17:23:39.231Z,22.12
2023-05-20T17:24:39.200Z,22.17
2023-05-20T17:25:39.178Z,22.06
2023-05-20T17:26:39.167Z,22.09
2023-05-20T17:27:44.190Z,22.10
2023-05-20T17:28:39.141Z,22.06
2023-05-20T17:29:39.187Z,22.02
2023-05-20T17:30:39.119Z,21.98
2023-05-20T17:31:39.108Z,21.98
2023-05-20T17:32:39.221Z,21.88
2023-05-20T17:33:39.163Z,21.82
2023-05-20T17:34:39.081Z,21.72
2023-05-20T17:35:39.088Z,21.68
2023-05-20T17:36:39.066Z,21.68
2023-05-20T17:37:39.039Z,21.59
2023-05-20T17:38:44.059Z,21.53
2023-05-20T17:39:39.018Z,21.52
2023-05-20T17:40:39.004Z,21.52
2023-05-20T17:41:39.031Z,21.54
2023-05-20T17:42:38.985Z,21.53
2023-05-20T17:43:39.008Z,21.42
2023-05-20T17:44:38.962Z,21.47
2023-05-20T17:45:38.958Z,21.43
2023-05-20T17:46:38.995Z,21.42
2023-05-20T17:47:38.960Z,21.43
2023-05-20T17:48:38.927Z,21.38
2023-05-20T17:49:43.926Z,21.47
2023-05-20T17:50:38.890Z,21.42
2023-05-20T17:51:38.882Z,21.40
2023-05-20T17:52:38.877Z,21.44
2023-05-20T17:53:38.895Z,21.32